Time;durP1;ratioP1;P1;durP2;ratioP2;P2;SDS_P1;SDS_P2;PMS_P1;PMS_P2;Temp;Humidity;BMP_temperature;BMP_pressure;BME280_temperature;BME280_humidity;BME280_pressure;Samples;Min_cycle;Max_cycle;Signal;HPM_P1;HPM_P2
2023/04/20 00:01:06;;;;;;;5.17;2.97;;;8.20;74.40;;;;;;5070496;28;20040;-52
2023/04/20 00:03:32;;;;;;;8.03;3.40;;;8.20;73.70;;;;;;5070296;28;20115;-55
2023/04/20 00:06:00;;;;;;;7.47;3.10;;;8.10;74.20;;;;;;5070661;28;20062;-54
2023/04/20 00:08:27;;;;;;;6.77;3.17;;;8.00;74.90;;;;;;5070312;28;20028;-54
2023/04/20 00:10:52;;;;;;;6.23;3.10;;;8.00;74.80;;;;;;5070298;28;20047;-54
2023/04/20 00:13:18;;;;;;;6.20;3.30;;;7.90;74.40;;;;;;5070142;28;20028;-54
2023/04/20 00:15:44;;;;;;;7.70;2.83;;;7.90;74.80;;;;;;5070408;28;20400;-53
2023/04/20 00:18:09;;;;;;;5.57;3.00;;;7.80;75.90;;;;;;5070427;28;20037;-50
2023/04/20 00:20:35;;;;;;;6.13;2.93;;;7.80;74.90;;;;;;5070278;28;20035;-49
2023/04/20 00:23:02;;;;;;;9.30;3.30;;;7.70;76.10;;;;;;5070761;28;20044;-49
2023/04/20 00:25:29;;;;;;;5.47;2.90;;;7.70;75.20;;;;;;5070130;28;20123;-54
2023/04/20 00:27:55;;;;;;;7.57;3.10;;;7.70;74.70;;;;;;5070051;28;20431;-52
2023/04/20 00:30:21;;;;;;;6.80;3.10;;;7.60;76.00;;;;;;5068934;28;20089;-54
2023/04/20 00:32:47;;;;;;;7.27;2.83;;;7.60;75.40;;;;;;5068678;28;20489;-53
2023/04/20 00:35:13;;;;;;;7.30;2.87;;;7.60;75.50;;;;;;5070218;28;20077;-50
2023/04/20 00:37:39;;;;;;;8.10;3.40;;;7.60;75.90;;;;;;5072648;28;20032;-52
2023/04/20 00:40:06;;;;;;;8.03;2.77;;;7.60;76.00;;;;;;5074086;28;20025;-52
2023/04/20 00:42:32;;;;;;;6.80;2.97;;;7.60;76.10;;;;;;5072917;28;20040;-55
2023/04/20 00:44:57;;;;;;;6.73;3.07;;;7.60;74.80;;;;;;5073989;28;20037;-54
2023/04/20 00:47:23;;;;;;;7.27;2.77;;;7.50;74.90;;;;;;5072531;28;20119;-51
2023/04/20 00:49:50;;;;;;;6.90;2.73;;;7.40;76.00;;;;;;5074042;28;20024;-52
2023/04/20 00:52:16;;;;;;;4.67;2.40;;;7.30;75.20;;;;;;5073795;28;20060;-52
2023/04/20 00:54:42;;;;;;;6.50;3.03;;;7.30;76.00;;;;;;5055688;28;20101;-53
2023/04/20 00:57:10;;;;;;;6.40;2.90;;;7.30;76.20;;;;;;5072340;28;20539;-55
2023/04/20 00:59:36;;;;;;;4.77;2.60;;;7.30;76.20;;;;;;5073794;28;20051;-49
2023/04/20 01:02:01;;;;;;;5.93;2.80;;;7.30;77.30;;;;;;5072360;28;20032;-50
2023/04/20 01:04:28;;;;;;;7.03;2.87;;;7.20;78.20;;;;;;5073503;28;20040;-49
2023/04/20 01:06:53;;;;;;;7.37;2.73;;;7.10;75.80;;;;;;5073432;28;20074;-53
2023/04/20 01:09:20;;;;;;;6.67;2.73;;;7.10;77.00;;;;;;5073498;28;20029;-55
2023/04/20 01:11:46;;;;;;;10.40;2.80;;;7.10;76.20;;;;;;5073410;28;20024;-50
2023/04/20 01:14:15;;;;;;;5.63;2.45;;;7.10;77.00;;;;;;5073734;28;20025;-52
2023/04/20 01:16:41;;;;;;;4.90;2.37;;;7.10;76.70;;;;;;5073494;28;20103;-49
2023/04/20 01:19:07;;;;;;;7.73;2.90;;;7.10;76.90;;;;;;5072107;28;20189;-55
2023/04/20 01:21:33;;;;;;;5.17;2.20;;;7.10;77.10;;;;;;5073262;28;20029;-52
2023/04/20 01:23:58;;;;;;;6.80;2.50;;;7.00;77.30;;;;;;5071796;28;20024;-53
2023/04/20 01:26:24;;;;;;;6.33;2.53;;;7.00;76.90;;;;;;5071980;28;20033;-50
2023/04/20 01:28:50;;;;;;;5.67;2.50;;;7.00;76.90;;;;;;5071889;28;20031;-52
2023/04/20 01:31:16;;;;;;;4.57;2.27;;;7.10;77.10;;;;;;5073125;28;20502;-51
2023/04/20 01:33:42;;;;;;;5.47;2.30;;;7.00;78.60;;;;;;5056479;22;20094;-51
2023/04/20 01:36:08;;;;;;;8.00;2.67;;;7.00;78.60;;;;;;5031846;28;20056;-52
2023/04/20 01:38:35;;;;;;;5.47;2.60;;;7.10;79.50;;;;;;5031493;28;20036;-52
2023/04/20 01:41:06;;;;;;;6.77;2.30;;;7.10;78.80;;;;;;5031842;28;20029;-51
2023/04/20 01:43:33;;;;;;;6.40;2.50;;;7.10;78.90;;;;;;5033055;28;20057;-51
2023/04/20 01:45:59;;;;;;;8.00;2.77;;;7.10;79.60;;;;;;5033015;28;20437;-49
2023/04/20 01:48:25;;;;;;;6.73;2.30;;;7.10;79.30;;;;;;5032674;28;20044;-51
2023/04/20 01:50:52;;;;;;;7.70;2.77;;;7.10;79.70;;;;;;5031538;28;20021;-52
2023/04/20 01:53:18;;;;;;;6.30;2.60;;;7.20;80.90;;;;;;5031320;28;20029;-54
2023/04/20 01:55:47;;;;;;;12.30;2.60;;;7.20;81.30;;;;;;5031558;28;20021;-50
2023/04/20 01:58:13;;;;;;;7.17;2.80;;;7.20;81.70;;;;;;5031421;28;20060;-52
2023/04/20 02:00:38;;;;;;;8.83;2.20;;;7.30;81.80;;;;;;5031411;28;20029;-48
2023/04/20 02:03:05;;;;;;;6.83;2.60;;;7.30;83.10;;;;;;5031424;28;20044;-51
2023/04/20 02:05:31;;;;;;;7.00;2.30;;;7.30;82.80;;;;;;5031111;28;20025;-52
2023/04/20 02:07:57;;;;;;;4.97;2.50;;;7.30;83.10;;;;;;5031074;28;20035;-50
2023/04/20 02:10:23;;;;;;;8.10;2.30;;;7.30;83.50;;;;;;5031335;28;20029;-50
2023/04/20 02:12:49;;;;;;;5.80;2.50;;;7.30;84.70;;;;;;5032314;28;20091;-51
2023/04/20 02:15:15;;;;;;;6.47;2.73;;;7.30;84.80;;;;;;5031011;28;20482;-48
2023/04/20 02:17:42;;;;;;;7.30;2.70;;;7.30;84.40;;;;;;5030981;28;20030;-51
2023/04/20 02:20:09;;;;;;;6.73;2.60;;;7.40;85.30;;;;;;5032353;28;20394;-50
2023/04/20 02:22:36;;;;;;;6.83;2.63;;;7.40;84.70;;;;;;5032362;28;20025;-51
2023/04/20 02:25:04;;;;;;;5.13;2.70;;;7.40;83.80;;;;;;5032105;28;20493;-50
2023/04/20 02:27:30;;;;;;;6.33;2.47;;;7.40;84.20;;;;;;5030901;28;20064;-52
2023/04/20 02:29:56;;;;;;;4.43;2.10;;;7.30;84.50;;;;;;5032186;28;20044;-52
2023/04/20 02:32:22;;;;;;;5.30;2.33;;;7.40;85.10;;;;;;5032009;28;20029;-52
2023/04/20 02:34:49;;;;;;;4.97;2.07;;;7.30;84.30;;;;;;5031783;28;20046;-52
2023/04/20 02:37:15;;;;;;;4.03;2.30;;;7.40;85.60;;;;;;5031982;28;20441;-52
2023/04/20 02:39:42;;;;;;;5.60;2.63;;;7.40;84.40;;;;;;5030644;28;20044;-51
2023/04/20 02:42:07;;;;;;;6.70;2.80;;;7.40;84.10;;;;;;5032054;28;20029;-49
2023/04/20 02:44:34;;;;;;;5.90;2.40;;;7.40;84.50;;;;;;5030468;28;20449;-50
2023/04/20 02:47:01;;;;;;;5.93;2.53;;;7.40;84.10;;;;;;5030464;28;20037;-52
2023/04/20 02:49:27;;;;;;;7.73;2.57;;;7.40;84.40;;;;;;5031744;28;20043;-52
2023/04/20 02:51:53;;;;;;;8.90;3.07;;;7.30;85.10;;;;;;5030364;28;20071;-52
2023/04/20 02:54:19;;;;;;;6.83;2.77;;;7.30;84.60;;;;;;5030454;28;20448;-48
2023/04/20 02:56:45;;;;;;;5.40;2.60;;;7.30;85.10;;;;;;5030312;28;20026;-52
2023/04/20 02:59:11;;;;;;;7.87;2.73;;;7.30;85.20;;;;;;5031079;28;20092;-49
2023/04/20 03:01:42;;;;;;;4.47;2.17;;;7.30;85.90;;;;;;5030342;28;20033;-49
2023/04/20 03:04:12;;;;;;;6.13;2.30;;;7.20;85.80;;;;;;5030043;28;20094;-52
2023/04/20 03:06:45;;;;;;;4.87;2.30;;;7.20;85.90;;;;;;5030033;28;20044;-52
2023/04/20 03:09:15;;;;;;;5.23;2.70;;;7.20;85.40;;;;;;5030266;28;20033;-52
2023/04/20 03:11:47;;;;;;;8.93;2.77;;;7.10;86.30;;;;;;5031588;28;20084;-52
2023/04/20 03:14:24;;;;;;;7.73;2.53;;;7.20;86.80;;;;;;5030001;28;20103;-50
2023/04/20 03:16:51;;;;;;;6.40;2.60;;;7.20;87.30;;;;;;5029917;28;20108;-50
2023/04/20 03:19:17;;;;;;;7.43;2.70;;;7.20;88.00;;;;;;5030112;28;20079;-51
2023/04/20 03:21:44;;;;;;;6.87;2.50;;;7.20;87.40;;;;;;5030038;28;20110;-50
2023/04/20 03:24:09;;;;;;;7.07;2.87;;;7.10;87.30;;;;;;5030031;28;20029;-52
2023/04/20 03:26:35;;;;;;;6.23;2.63;;;7.10;89.20;;;;;;5029966;28;20147;-50
2023/04/20 03:29:11;;;;;;;6.37;2.53;;;7.20;89.00;;;;;;5030011;28;20037;-50
2023/04/20 03:31:38;;;;;;;5.83;2.43;;;7.20;89.00;;;;;;5029982;28;20037;-51
2023/04/20 03:34:03;;;;;;;8.40;2.60;;;7.20;89.60;;;;;;5029675;28;20033;-51
2023/04/20 03:36:31;;;;;;;10.23;2.97;;;7.20;89.90;;;;;;5030085;28;20029;-52
2023/04/20 03:38:57;;;;;;;7.07;2.60;;;7.20;89.40;;;;;;5029999;28;20029;-52
2023/04/20 03:41:22;;;;;;;7.53;2.70;;;7.20;89.60;;;;;;5031346;28;20104;-51
2023/04/20 03:43:48;;;;;;;6.90;3.00;;;7.20;90.20;;;;;;5029880;28;20040;-51
2023/04/20 03:46:14;;;;;;;9.83;2.93;;;7.10;90.20;;;;;;5031356;28;20037;-53
2023/04/20 03:48:39;;;;;;;6.03;2.70;;;7.10;90.00;;;;;;5031093;28;20124;-51
2023/04/20 03:51:05;;;;;;;5.90;2.60;;;7.10;90.70;;;;;;5031222;28;20112;-52
2023/04/20 03:53:31;;;;;;;5.47;2.70;;;7.10;90.80;;;;;;5029620;28;20033;-51
2023/04/20 03:55:57;;;;;;;6.97;2.73;;;7.10;91.10;;;;;;5029762;28;20036;-51
2023/04/20 03:58:24;;;;;;;4.67;2.80;;;7.00;91.00;;;;;;5029621;28;20090;-51
2023/04/20 04:01:08;;;;;;;8.20;3.27;;;7.00;91.10;;;;;;5029748;28;20371;-52
2023/04/20 04:03:36;;;;;;;6.17;2.77;;;7.00;92.00;;;;;;5029450;28;20029;-52
2023/04/20 04:06:03;;;;;;;5.77;2.93;;;7.00;92.30;;;;;;5029613;28;20117;-52
2023/04/20 04:08:31;;;;;;;10.47;3.20;;;7.00;92.60;;;;;;5029480;28;20061;-51
2023/04/20 04:10:57;;;;;;;7.60;2.80;;;7.00;92.80;;;;;;5029492;28;20029;-53
2023/04/20 04:13:22;;;;;;;6.07;2.60;;;7.00;93.20;;;;;;5030684;28;20414;-49
2023/04/20 04:15:49;;;;;;;7.63;2.70;;;7.00;93.10;;;;;;5030733;28;20022;-48
2023/04/20 04:18:15;;;;;;;7.43;3.00;;;7.10;93.40;;;;;;5029412;28;20029;-51
2023/04/20 04:20:41;;;;;;;6.07;2.97;;;7.10;93.20;;;;;;5029427;28;20033;-49
2023/04/20 04:23:09;;;;;;;6.77;3.00;;;7.00;93.10;;;;;;5029590;28;20523;-49
2023/04/20 04:25:40;;;;;;;7.93;3.00;;;7.00;93.40;;;;;;5029337;28;20528;-50
2023/04/20 04:28:08;;;;;;;7.30;2.77;;;7.00;93.30;;;;;;5029275;28;20033;-51
2023/04/20 04:30:37;;;;;;;9.02;3.30;;;6.90;93.90;;;;;;5029333;28;20080;-50
2023/04/20 04:33:06;;;;;;;5.43;2.58;;;6.90;93.80;;;;;;5029228;28;20406;-52
2023/04/20 04:35:36;;;;;;;7.97;3.27;;;6.90;94.40;;;;;;5029157;28;20025;-50
2023/04/20 04:38:03;;;;;;;7.60;3.40;;;7.00;94.30;;;;;;5029196;28;20441;-51
2023/04/20 04:40:29;;;;;;;7.90;3.10;;;7.00;94.20;;;;;;5029305;28;20103;-52
2023/04/20 04:42:57;;;;;;;6.67;3.10;;;7.00;94.60;;;;;;5029205;28;20035;-52
2023/04/20 04:45:24;;;;;;;6.10;2.87;;;7.00;94.90;;;;;;5029190;28;20305;-53
2023/04/20 04:47:52;;;;;;;7.80;2.90;;;7.00;95.40;;;;;;5030257;28;20026;-50
2023/04/20 04:50:18;;;;;;;5.47;3.00;;;7.00;95.50;;;;;;5029049;28;20061;-53
2023/04/20 04:52:44;;;;;;;6.73;2.80;;;7.00;95.70;;;;;;5029005;28;20446;-49
2023/04/20 04:55:10;;;;;;;8.53;3.17;;;7.10;96.30;;;;;;5030339;28;20060;-52
2023/04/20 04:57:37;;;;;;;6.47;3.10;;;7.10;96.90;;;;;;5030239;28;20030;-53
2023/04/20 05:00:08;;;;;;;8.80;3.00;;;7.20;96.80;;;;;;5030284;28;20101;-52
2023/04/20 05:02:34;;;;;;;9.57;3.50;;;7.20;97.60;;;;;;5030412;28;20133;-52
2023/04/20 05:05:00;;;;;;;8.87;3.37;;;7.20;97.80;;;;;;5030611;28;20130;-52
2023/04/20 05:07:25;;;;;;;7.40;3.47;;;7.20;97.40;;;;;;5030249;28;20037;-51
2023/04/20 05:09:51;;;;;;;7.17;3.70;;;7.30;97.90;;;;;;5030280;28;20034;-51
2023/04/20 05:12:18;;;;;;;7.53;3.70;;;7.30;98.10;;;;;;5030367;28;20064;-48
2023/04/20 05:14:43;;;;;;;6.80;3.13;;;7.30;98.40;;;;;;5030086;28;20052;-51
2023/04/20 05:17:10;;;;;;;7.53;3.50;;;7.30;98.70;;;;;;5030034;28;20061;-49
2023/04/20 05:19:36;;;;;;;7.50;3.60;;;7.30;99.20;;;;;;5030232;28;20037;-49
2023/04/20 05:22:01;;;;;;;9.60;4.23;;;7.40;99.70;;;;;;5031696;28;20394;-51
2023/04/20 05:24:27;;;;;;;5.67;3.67;;;7.50;99.90;;;;;;5033796;28;20065;-51
2023/04/20 05:26:53;;;;;;;7.10;3.70;;;7.50;99.90;;;;;;5033651;28;20112;-51
2023/04/20 05:29:18;;;;;;;10.00;3.97;;;7.50;99.90;;;;;;5033674;28;20549;-52
2023/04/20 05:31:44;;;;;;;6.03;3.37;;;7.50;99.90;;;;;;5033495;28;20087;-50
2023/04/20 05:34:10;;;;;;;7.27;3.87;;;7.50;99.90;;;;;;5033144;28;20068;-51
2023/04/20 05:36:36;;;;;;;6.57;3.63;;;7.50;99.90;;;;;;5033384;28;20033;-50
2023/04/20 05:39:02;;;;;;;7.53;3.60;;;7.50;99.90;;;;;;5033488;28;20044;-52
2023/04/20 05:41:27;;;;;;;5.83;3.27;;;7.60;99.90;;;;;;5033403;28;20065;-52
2023/04/20 05:43:54;;;;;;;8.40;3.97;;;7.70;99.90;;;;;;5033036;28;20057;-52
2023/04/20 05:46:20;;;;;;;7.60;4.00;;;7.80;99.90;;;;;;5032831;28;20075;-52
2023/04/20 05:48:46;;;;;;;7.87;3.70;;;7.80;99.90;;;;;;5031649;28;20059;-50
2023/04/20 05:51:12;;;;;;;9.63;3.87;;;7.80;99.90;;;;;;5032907;28;20136;-53
2023/04/20 05:53:37;;;;;;;7.63;3.70;;;7.80;99.90;;;;;;5032725;28;20179;-51
2023/04/20 05:56:03;;;;;;;7.90;3.93;;;7.80;99.90;;;;;;5032994;28;20029;-49
2023/04/20 05:58:32;;;;;;;8.87;4.27;;;7.80;99.90;;;;;;5032759;28;20030;-50
2023/04/20 06:00:57;;;;;;;6.57;3.87;;;7.80;99.90;;;;;;5032867;28;20039;-49
2023/04/20 06:03:23;;;;;;;7.73;4.30;;;7.70;99.90;;;;;;5032429;28;20033;-54
2023/04/20 06:05:50;;;;;;;7.67;4.03;;;7.60;99.90;;;;;;5032772;28;20028;-51
2023/04/20 06:08:16;;;;;;;9.30;4.20;;;7.70;99.90;;;;;;5032508;28;20104;-52
2023/04/20 06:10:42;;;;;;;7.83;4.10;;;7.70;99.90;;;;;;5032779;28;20075;-52
2023/04/20 06:13:07;;;;;;;9.60;4.10;;;7.60;99.90;;;;;;5032479;28;20509;-50
2023/04/20 06:15:33;;;;;;;9.27;4.57;;;7.60;99.90;;;;;;5032416;28;20025;-51
2023/04/20 06:18:00;;;;;;;9.73;4.70;;;7.60;99.90;;;;;;5032271;28;20025;-52
2023/04/20 06:20:26;;;;;;;10.53;4.77;;;7.60;99.90;;;;;;5032350;28;20597;-53
2023/04/20 06:22:52;;;;;;;9.43;4.73;;;7.50;99.90;;;;;;5032400;28;20128;-49
2023/04/20 06:25:17;;;;;;;11.20;4.80;;;7.50;99.90;;;;;;5032305;28;20037;-51
2023/04/20 06:27:43;;;;;;;11.90;5.73;;;7.60;99.90;;;;;;5032164;28;20064;-51
2023/04/20 06:30:10;;;;;;;10.47;4.67;;;7.60;99.90;;;;;;5032079;28;20030;-49
2023/04/20 06:32:36;;;;;;;9.60;4.70;;;7.60;99.90;;;;;;5031401;28;20034;-53
2023/04/20 06:35:03;;;;;;;9.93;4.50;;;7.70;99.90;;;;;;5031311;28;20044;-52
2023/04/20 06:37:29;;;;;;;9.47;4.60;;;7.70;99.90;;;;;;5030787;28;20509;-53
2023/04/20 06:39:54;;;;;;;10.33;4.90;;;7.70;99.90;;;;;;5032017;28;20053;-51
2023/04/20 06:42:21;;;;;;;12.40;4.93;;;7.60;99.90;;;;;;5031942;28;20494;-51
2023/04/20 06:44:47;;;;;;;12.60;5.00;;;7.60;99.90;;;;;;5031766;28;20201;-52
2023/04/20 06:47:12;;;;;;;9.73;5.37;;;7.60;99.90;;;;;;5031630;28;20494;-52
2023/04/20 06:49:38;;;;;;;9.87;4.87;;;7.50;99.90;;;;;;5031861;28;20030;-52
2023/04/20 06:52:05;;;;;;;10.23;5.20;;;7.50;99.90;;;;;;5031721;28;20124;-51
2023/04/20 06:54:31;;;;;;;10.80;4.90;;;7.40;99.90;;;;;;5031585;28;20029;-50
2023/04/20 06:56:57;;;;;;;8.33;4.87;;;7.50;99.90;;;;;;5031589;28;20033;-52
2023/04/20 06:59:22;;;;;;;7.93;4.80;;;7.40;99.90;;;;;;5031522;28;20040;-52
2023/04/20 07:01:48;;;;;;;9.43;5.20;;;7.40;99.90;;;;;;5031747;28;20116;-54
2023/04/20 07:04:14;;;;;;;8.60;5.63;;;7.40;99.90;;;;;;5031482;28;20029;-54
2023/04/20 07:06:40;;;;;;;10.37;6.53;;;7.20;99.90;;;;;;5031409;28;20030;-52
2023/04/20 07:09:07;;;;;;;9.73;6.50;;;7.10;99.90;;;;;;5031282;28;20156;-50
2023/04/20 07:11:33;;;;;;;10.83;6.10;;;7.10;99.90;;;;;;5031386;28;20044;-52
2023/04/20 07:13:58;;;;;;;11.80;6.13;;;7.00;99.90;;;;;;5030945;28;20025;-52
2023/04/20 07:16:24;;;;;;;10.13;5.73;;;6.90;99.90;;;;;;5031180;28;20088;-52
2023/04/20 07:18:50;;;;;;;12.27;5.57;;;6.90;99.90;;;;;;5031243;28;20033;-53
2023/04/20 07:21:16;;;;;;;8.97;6.03;;;6.90;99.90;;;;;;5031355;28;20136;-53
2023/04/20 07:23:41;;;;;;;10.50;6.20;;;6.90;99.90;;;;;;5031058;28;20540;-54
2023/04/20 07:26:07;;;;;;;13.13;6.27;;;6.80;99.90;;;;;;5031152;28;20029;-52
2023/04/20 07:28:33;;;;;;;11.63;5.93;;;6.90;99.90;;;;;;5030819;28;20500;-50
2023/04/20 07:30:59;;;;;;;8.80;6.03;;;6.90;99.90;;;;;;5030999;28;20037;-50
2023/04/20 07:33:25;;;;;;;11.07;7.10;;;6.90;99.90;;;;;;5030859;28;20029;-52
2023/04/20 07:35:51;;;;;;;12.77;7.07;;;6.90;99.90;;;;;;5031098;28;20026;-50
2023/04/20 07:38:16;;;;;;;11.00;6.97;;;6.90;99.90;;;;;;5030998;28;20028;-49
2023/04/20 07:40:42;;;;;;;12.30;7.17;;;7.00;99.90;;;;;;5031058;28;20068;-50
2023/04/20 07:43:08;;;;;;;13.27;7.10;;;7.10;99.90;;;;;;5031303;28;20083;-50
2023/04/20 07:45:33;;;;;;;15.37;7.43;;;7.00;99.90;;;;;;5030551;28;20052;-53
2023/04/20 07:48:01;;;;;;;11.60;6.60;;;7.10;99.90;;;;;;5030774;28;20032;-50
2023/04/20 07:50:27;;;;;;;11.70;6.93;;;7.10;99.90;;;;;;5030870;28;20064;-53
2023/04/20 07:52:52;;;;;;;12.17;6.30;;;7.30;99.90;;;;;;5030558;28;20069;-52
2023/04/20 07:55:18;;;;;;;12.77;6.47;;;7.40;99.90;;;;;;5030600;28;20032;-52
2023/04/20 07:57:44;;;;;;;12.77;6.97;;;7.50;99.90;;;;;;5030532;28;20178;-53
2023/04/20 08:00:11;;;;;;;13.00;7.03;;;7.50;99.90;;;;;;5030587;28;20029;-53
2023/04/20 08:02:40;;;;;;;13.57;6.13;;;7.60;99.90;;;;;;5031082;28;20043;-52
2023/04/20 08:05:07;;;;;;;10.03;6.60;;;7.60;99.90;;;;;;5030508;28;20033;-50
2023/04/20 08:07:33;;;;;;;15.07;6.83;;;7.50;99.90;;;;;;5030507;28;20068;-53
2023/04/20 08:10:00;;;;;;;11.27;6.30;;;7.50;99.90;;;;;;5030559;28;20434;-53
2023/04/20 08:12:26;;;;;;;12.77;7.10;;;7.50;99.90;;;;;;5030740;28;20041;-52
2023/04/20 08:14:51;;;;;;;9.27;6.03;;;7.60;99.90;;;;;;5030493;28;20030;-50
2023/04/20 08:17:17;;;;;;;10.90;6.77;;;7.60;99.90;;;;;;5030316;28;20438;-51
2023/04/20 08:19:43;;;;;;;11.07;7.00;;;7.70;99.90;;;;;;5030563;28;20032;-51
2023/04/20 08:22:11;;;;;;;10.00;6.93;;;7.80;99.90;;;;;;5030406;28;20025;-53
2023/04/20 08:24:37;;;;;;;11.03;6.03;;;7.80;99.90;;;;;;5030133;28;20033;-52
2023/04/20 08:27:02;;;;;;;8.53;5.87;;;7.90;99.90;;;;;;5030119;28;20040;-52
2023/04/20 08:29:28;;;;;;;9.23;5.93;;;7.90;99.90;;;;;;5030230;28;20398;-52
2023/04/20 08:31:54;;;;;;;10.67;5.17;;;8.00;99.90;;;;;;5030292;28;20548;-50
2023/04/20 08:34:20;;;;;;;10.67;5.60;;;7.90;99.90;;;;;;5030091;28;20552;-53
2023/04/20 08:36:46;;;;;;;8.50;5.40;;;7.90;99.90;;;;;;5030174;28;20037;-53
2023/04/20 08:39:13;;;;;;;11.50;5.37;;;7.80;99.90;;;;;;5030291;28;20026;-53
2023/04/20 08:41:40;;;;;;;8.27;5.40;;;7.80;99.90;;;;;;5030142;28;20084;-50
2023/04/20 08:44:08;;;;;;;10.43;6.07;;;7.90;99.90;;;;;;5030112;28;20033;-52
2023/04/20 08:46:34;;;;;;;8.40;5.37;;;7.80;99.90;;;;;;5030126;28;20029;-50
2023/04/20 08:49:03;;;;;;;12.53;5.57;;;7.90;99.90;;;;;;5030100;28;20447;-52
2023/04/20 08:51:31;;;;;;;9.88;6.03;;;7.90;99.90;;;;;;5030076;28;20059;-52
2023/04/20 08:54:04;;;;;;;9.40;6.20;;;7.80;99.90;;;;;;5029738;28;20029;-49
2023/04/20 08:56:38;;;;;;;7.37;4.77;;;7.90;99.90;;;;;;5030315;28;20557;-48
2023/04/20 08:59:04;;;;;;;10.13;5.37;;;8.00;99.90;;;;;;5033766;28;20032;-51
2023/04/20 09:01:31;;;;;;;9.60;5.50;;;8.10;99.90;;;;;;5033958;28;20033;-52
2023/04/20 09:03:58;;;;;;;9.07;5.40;;;8.20;99.90;;;;;;5033567;28;20484;-51
2023/04/20 09:06:24;;;;;;;9.60;5.37;;;8.30;99.90;;;;;;5033547;28;20025;-52
2023/04/20 09:08:50;;;;;;;8.30;5.70;;;8.30;99.90;;;;;;5033747;28;20462;-52
2023/04/20 09:11:31;;;;;;;10.10;6.30;;;8.40;99.90;;;;;;5033622;28;20322;-52
2023/04/20 09:14:14;;;;;;;10.17;5.80;;;8.40;99.90;;;;;;5033376;28;20033;-51
2023/04/20 09:17:01;;;;;;;9.67;5.30;;;8.50;99.90;;;;;;5033386;28;20029;-52
2023/04/20 09:19:30;;;;;;;9.60;6.07;;;8.50;99.90;;;;;;5033563;28;20493;-54
2023/04/20 09:22:02;;;;;;;10.38;5.93;;;8.70;99.90;;;;;;5033676;28;20041;-53
2023/04/20 09:24:33;;;;;;;9.33;5.90;;;8.80;99.90;;;;;;5033167;28;20053;-52
2023/04/20 09:27:01;;;;;;;13.60;7.13;;;8.60;99.90;;;;;;5033162;28;20044;-51
2023/04/20 09:29:27;;;;;;;12.67;7.43;;;8.50;99.90;;;;;;5033238;28;20653;-53
2023/04/20 09:31:53;;;;;;;11.07;7.60;;;8.40;99.90;;;;;;5033168;28;20030;-53
2023/04/20 09:34:20;;;;;;;12.20;7.07;;;8.40;99.90;;;;;;5032821;28;20026;-53
2023/04/20 09:36:51;;;;;;;12.90;7.17;;;8.30;99.90;;;;;;5032997;28;20448;-53
2023/04/20 09:39:20;;;;;;;12.43;7.20;;;8.30;99.90;;;;;;5033118;28;20509;-53
2023/04/20 09:41:48;;;;;;;13.43;7.77;;;8.30;99.90;;;;;;5033091;28;20036;-54
2023/04/20 09:44:16;;;;;;;12.60;8.07;;;8.30;99.90;;;;;;5032689;28;20557;-51
2023/04/20 09:46:42;;;;;;;10.70;7.17;;;8.40;99.90;;;;;;5032958;28;20037;-53
2023/04/20 09:49:10;;;;;;;10.50;7.23;;;8.60;99.90;;;;;;5033068;28;20033;-52
2023/04/20 09:51:40;;;;;;;8.87;5.90;;;8.80;99.90;;;;;;5033019;28;20049;-53
2023/04/20 09:54:06;;;;;;;8.03;5.53;;;9.10;99.90;;;;;;5032603;28;20029;-51
2023/04/20 09:56:34;;;;;;;10.63;5.90;;;9.50;99.90;;;;;;5032507;28;20029;-49
2023/04/20 09:59:02;;;;;;;9.57;6.93;;;9.80;99.90;;;;;;5032723;28;20029;-52
2023/04/20 10:01:33;;;;;;;11.27;6.90;;;9.80;99.90;;;;;;5032683;28;20040;-52
2023/04/20 10:04:00;;;;;;;10.93;7.10;;;9.70;99.90;;;;;;5032368;28;20429;-51
2023/04/20 10:06:32;;;;;;;11.10;7.77;;;9.40;99.90;;;;;;5032521;28;20037;-52
2023/04/20 10:09:00;;;;;;;11.07;8.07;;;9.30;99.90;;;;;;5032339;28;20128;-52
2023/04/20 10:11:35;;;;;;;12.25;7.80;;;9.30;99.90;;;;;;5032572;28;20429;-50
2023/04/20 10:14:18;;;;;;;14.10;8.50;;;9.20;99.90;;;;;;5032368;28;20045;-52
2023/04/20 10:16:45;;;;;;;14.00;8.37;;;9.30;99.90;;;;;;5032363;28;20473;-53
2023/04/20 10:19:12;;;;;;;11.63;8.23;;;9.30;99.90;;;;;;5032417;28;20025;-51
2023/04/20 10:21:46;;;;;;;11.50;7.23;;;9.40;99.90;;;;;;5032362;28;20029;-52
2023/04/20 10:24:12;;;;;;;10.53;7.90;;;9.70;99.90;;;;;;5032494;28;20029;-50
2023/04/20 10:26:39;;;;;;;9.43;6.60;;;10.20;99.90;;;;;;5032017;28;20498;-50
2023/04/20 10:29:08;;;;;;;9.33;5.77;;;11.10;99.90;;;;;;5032282;28;20113;-50
2023/04/20 10:31:38;;;;;;;12.50;7.13;;;11.30;99.90;;;;;;5032223;28;20116;-51
2023/04/20 10:34:04;;;;;;;8.07;5.97;;;11.40;99.90;;;;;;5031916;28;20397;-52
2023/04/20 10:36:35;;;;;;;7.70;6.03;;;10.90;99.90;;;;;;5032175;28;20064;-51
2023/04/20 10:39:15;;;;;;;8.07;6.10;;;10.60;99.90;;;;;;5032286;28;20030;-53
2023/04/20 10:42:02;;;;;;;9.00;5.83;;;10.40;99.90;;;;;;5032160;28;20080;-51
2023/04/20 10:44:29;;;;;;;7.27;5.40;;;10.50;99.90;;;;;;5031708;28;20048;-50
2023/04/20 10:46:55;;;;;;;6.67;4.93;;;10.80;99.90;;;;;;5031743;28;20021;-51
2023/04/20 10:49:28;;;;;;;7.43;4.53;;;11.00;99.90;;;;;;5031684;28;20036;-52
2023/04/20 10:51:55;;;;;;;5.50;4.33;;;11.60;99.90;;;;;;5031548;28;20029;-51
2023/04/20 10:54:21;;;;;;;5.53;3.87;;;11.90;99.90;;;;;;5031568;28;20063;-53
2023/04/20 10:56:51;;;;;;;5.40;3.93;;;11.60;99.90;;;;;;5031495;28;20030;-53
2023/04/20 10:59:19;;;;;;;6.73;4.13;;;11.70;99.90;;;;;;5031983;28;20383;-55
2023/04/20 11:01:46;;;;;;;4.47;3.10;;;11.80;99.90;;;;;;5031676;28;20123;-53
2023/04/20 11:04:12;;;;;;;3.90;2.90;;;12.10;99.90;;;;;;5031571;28;20040;-51
2023/04/20 11:06:40;;;;;;;4.93;3.30;;;12.70;99.90;;;;;;5031383;28;20394;-53
2023/04/20 11:09:18;;;;;;;5.60;3.35;;;12.80;99.50;;;;;;5031413;28;20541;-52
2023/04/20 11:11:44;;;;;;;4.85;3.55;;;13.20;99.20;;;;;;5031407;28;20517;-54
2023/04/20 11:14:11;;;;;;;4.45;3.40;;;13.70;99.30;;;;;;5031079;28;20057;-51
2023/04/20 11:16:38;;;;;;;5.22;3.60;;;13.80;98.70;;;;;;5031201;28;20029;-51
2023/04/20 11:19:04;;;;;;;6.63;4.10;;;13.60;97.70;;;;;;5030817;28;20367;-51
2023/04/20 11:21:41;;;;;;;5.18;2.90;;;13.40;98.80;;;;;;5031342;28;20312;-52
2023/04/20 11:24:27;;;;;;;4.32;3.17;;;13.00;98.40;;;;;;5030874;28;20026;-50
2023/04/20 11:26:54;;;;;;;5.32;3.15;;;12.70;98.90;;;;;;5031163;28;20033;-52
2023/04/20 11:29:32;;;;;;;4.23;2.97;;;12.40;98.80;;;;;;5031163;28;20033;-52
2023/04/20 11:32:06;;;;;;;6.70;3.77;;;12.20;99.70;;;;;;5031004;28;20034;-50
2023/04/20 11:34:33;;;;;;;5.73;3.17;;;12.00;99.80;;;;;;5030873;28;20033;-52
2023/04/20 11:37:08;;;;;;;5.43;3.50;;;11.60;99.90;;;;;;5030736;28;20096;-53
2023/04/20 11:39:35;;;;;;;4.67;3.43;;;11.40;99.90;;;;;;5030899;28;20025;-53
2023/04/20 11:42:00;;;;;;;5.57;3.50;;;11.60;99.90;;;;;;5030783;28;20033;-53
2023/04/20 11:44:26;;;;;;;5.37;3.07;;;11.90;99.90;;;;;;5030955;28;20288;-54
2023/04/20 11:46:55;;;;;;;4.50;3.40;;;12.00;99.90;;;;;;5030422;28;20052;-53
2023/04/20 11:49:22;;;;;;;;;;;12.00;99.00;;;;;;5031318;28;20071;-50
2023/04/20 11:51:49;;;;;;;5.70;3.40;;;12.10;99.90;;;;;;5030707;28;20266;-51
2023/04/20 11:54:17;;;;;;;4.73;3.20;;;12.20;99.70;;;;;;5030563;28;20421;-55
2023/04/20 11:56:43;;;;;;;7.07;3.20;;;12.70;99.90;;;;;;5030453;28;20029;-53
2023/04/20 11:59:10;;;;;;;5.23;3.03;;;13.00;97.90;;;;;;5030544;28;20049;-49
2023/04/20 12:01:36;;;;;;;4.80;3.10;;;12.90;98.10;;;;;;5030542;28;20034;-53
2023/04/20 12:04:03;;;;;;;4.20;3.30;;;12.70;98.30;;;;;;5030482;28;20497;-52
2023/04/20 12:06:30;;;;;;;8.07;3.80;;;12.70;99.90;;;;;;5030410;28;20041;-51
2023/04/20 12:08:56;;;;;;;4.37;3.10;;;12.90;98.00;;;;;;5030552;28;20033;-52
2023/04/20 12:11:22;;;;;;;4.20;3.13;;;13.00;98.70;;;;;;5030338;28;20044;-53
2023/04/20 12:13:48;;;;;;;4.67;2.83;;;13.20;96.90;;;;;;5030239;28;20383;-50
2023/04/20 12:16:14;;;;;;;3.63;2.60;;;13.10;95.80;;;;;;5030368;28;20036;-52
2023/04/20 12:18:40;;;;;;;4.53;2.90;;;13.30;96.30;;;;;;5028909;28;20037;-52
2023/04/20 12:21:06;;;;;;;6.33;3.30;;;13.50;95.60;;;;;;5030478;28;20481;-52
2023/04/20 12:23:32;;;;;;;4.00;2.57;;;13.60;95.80;;;;;;5030138;28;20029;-52
2023/04/20 12:25:58;;;;;;;4.15;2.70;;;13.60;95.10;;;;;;5030588;28;20449;-53
2023/04/20 12:28:24;;;;;;;4.07;2.70;;;13.70;95.10;;;;;;5030178;28;20059;-53
2023/04/20 12:30:50;;;;;;;4.57;2.40;;;13.70;95.50;;;;;;5031495;28;20449;-54
2023/04/20 12:33:16;;;;;;;4.63;2.77;;;13.70;94.80;;;;;;5034247;28;20423;-53
2023/04/20 12:35:42;;;;;;;4.20;3.05;;;13.70;94.90;;;;;;5034101;28;20109;-52
2023/04/20 12:38:08;;;;;;;4.87;2.70;;;13.80;95.70;;;;;;5033978;28;20113;-53
2023/04/20 12:40:34;;;;;;;4.90;3.35;;;13.70;94.40;;;;;;5034463;28;20448;-52
2023/04/20 12:43:00;;;;;;;4.87;3.27;;;13.70;95.00;;;;;;5032867;28;20512;-52
2023/04/20 12:45:25;;;;;;;5.60;3.10;;;13.40;95.20;;;;;;5034480;28;20064;-53
2023/04/20 12:47:51;;;;;;;5.37;3.30;;;13.10;95.10;;;;;;5034160;28;20108;-52
2023/04/20 12:50:17;;;;;;;4.53;3.10;;;13.00;95.00;;;;;;5033997;28;20025;-52
2023/04/20 12:52:43;;;;;;;4.37;2.87;;;12.80;96.20;;;;;;5033926;28;20026;-51